WXM80 ListenWXM80 Stop

You find our weather info also at:

UK Metoffice

WeatherCloud

Weather Underground

Northeastern Weather Network

AWEKAS

Citizen Weather Observer Program (CWOP)

HAMweather, WeatherForYou, PWS Weather


Weather Underground History page Text

Daily Summary for February 11, 2017 Units:  Both    English   Metric
« Previous Day
Next Day »
Daily Weekly Monthly Yearly Custom
  High: Low: Average:
Temperature: 43.1 °F /  6.2 °C 27.4 °F /  -2.6 °C 35.4 °F /  1.9 °C
Dew Point: 34.6 °F /  1.4 °C 22.7 °F /  -5.2 °C 30 °F /  -1.1 °C
Humidity: 92 % 59 % 81 %
Wind Speed: 4.9 mph /  7.9 km/h - 1.1 mph /  1.8 km/h
Wind Gust: 7.0 mph /  11.3 km/h - -
Wind:- - SSW
Pressure: 30.10 in /  1019.2 hPa 29.86 in /  1011.1 hPa -
Precipitation: 0.00 in /  0 mm    
Historical Graphs
 
 
Tabular Data for February 11, 2017
Time Temperature Dew Point Pressure Wind Wind Speed Wind Gust Humidity Rainfall Rate (Hourly)
00:03 27.8 °F /  -2.3 °C 22.7 °F /  -5.2 °C 30.10 in /  1019.2 hPa WSW 1.0 mph /  1.6 km/h 3.0 mph /  4.8 km/h 81 % 0.00 in /  0 mm
00:08 27.8 °F /  -2.3 °C 23.0 °F /  -5 °C 30.10 in /  1019.2 hPa WSW 0.6 mph /  1 km/h 2.3 mph /  3.7 km/h 82 % 0.00 in /  0 mm
00:13 27.7 °F /  -2.4 °C 22.9 °F /  -5.1 °C 30.09 in /  1018.8 hPa Calm   4.0 mph /  6.4 km/h 82 % 0.00 in /  0 mm
00:18 27.7 °F /  -2.4 °C 22.9 °F /  -5.1 °C 30.09 in /  1018.8 hPa SW 1.0 mph /  1.6 km/h 2.0 mph /  3.2 km/h 82 % 0.00 in /  0 mm
00:23 27.6 °F /  -2.4 °C 23.1 °F /  -4.9 °C 30.09 in /  1018.8 hPa Calm   4.0 mph /  6.4 km/h 83 % 0.00 in /  0 mm
00:28 27.6 °F /  -2.4 °C 22.8 °F /  -5.1 °C 30.09 in /  1018.8 hPa Calm     82 % 0.00 in /  0 mm
00:33 27.6 °F /  -2.4 °C 23.1 °F /  -4.9 °C 30.09 in /  1018.8 hPa South 1.0 mph /  1.6 km/h 5.0 mph /  8 km/h 83 % 0.00 in /  0 mm
00:38 27.5 °F /  -2.5 °C 23.0 °F /  -5 °C 30.08 in /  1018.5 hPa SSE 0.9 mph /  1.4 km/h 3.5 mph /  5.6 km/h 83 % 0.00 in /  0 mm
00:43 27.5 °F /  -2.5 °C 23.3 °F /  -4.8 °C 30.08 in /  1018.5 hPa SSE 0.5 mph /  0.8 km/h 3.5 mph /  5.6 km/h 84 % 0.00 in /  0 mm
00:48 27.5 °F /  -2.5 °C 23.3 °F /  -4.8 °C 30.08 in /  1018.5 hPa SSE 2.0 mph /  3.2 km/h 3.0 mph /  4.8 km/h 84 % 0.00 in /  0 mm
00:53 27.5 °F /  -2.5 °C 23.3 °F /  -4.8 °C 30.07 in /  1018.2 hPa Calm   4.0 mph /  6.4 km/h 84 % 0.00 in /  0 mm
00:58 27.5 °F /  -2.5 °C 23.3 °F /  -4.8 °C 30.08 in /  1018.5 hPa Calm     84 % 0.00 in /  0 mm
01:03 27.5 °F /  -2.5 °C 23.3 °F /  -4.8 °C 30.08 in /  1018.5 hPa Calm     84 % 0.00 in /  0 mm
01:08 27.5 °F /  -2.5 °C 23.3 °F /  -4.8 °C 30.07 in /  1018.2 hPa Calm     84 % 0.00 in /  0 mm
01:13 27.4 °F /  -2.6 °C 23.3 °F /  -4.8 °C 30.07 in /  1018.2 hPa SSE 1.0 mph /  1.6 km/h 1.0 mph /  1.6 km/h 84 % 0.00 in /  0 mm
01:18 27.4 °F /  -2.6 °C 23.2 °F /  -4.9 °C 30.06 in /  1017.8 hPa SSE 1.0 mph /  1.6 km/h 3.0 mph /  4.8 km/h 84 % 0.00 in /  0 mm
01:23 27.4 °F /  -2.6 °C 23.5 °F /  -4.7 °C 30.06 in /  1017.8 hPa SSE 1.0 mph /  1.6 km/h 2.0 mph /  3.2 km/h 85 % 0.00 in /  0 mm
01:28 27.4 °F /  -2.6 °C 23.5 °F /  -4.7 °C 30.06 in /  1017.8 hPa SSE 1.0 mph /  1.6 km/h 2.0 mph /  3.2 km/h 85 % 0.00 in /  0 mm
01:33 27.4 °F /  -2.6 °C 23.5 °F /  -4.7 °C 30.06 in /  1017.8 hPa Calm   2.0 mph /  3.2 km/h 85 % 0.00 in /  0 mm
01:38 27.4 °F /  -2.6 °C 23.8 °F /  -4.6 °C 30.06 in /  1017.8 hPa Calm   3.0 mph /  4.8 km/h 86 % 0.00 in /  0 mm
01:43 27.4 °F /  -2.6 °C 23.8 °F /  -4.6 °C 30.06 in /  1017.8 hPa SSE 1.0 mph /  1.6 km/h 3.0 mph /  4.8 km/h 86 % 0.00 in /  0 mm
01:48 27.4 °F /  -2.6 °C 23.8 °F /  -4.6 °C 30.06 in /  1017.8 hPa SSE 1.0 mph /  1.6 km/h 4.0 mph /  6.4 km/h 86 % 0.00 in /  0 mm
01:53 27.4 °F /  -2.6 °C 23.8 °F /  -4.6 °C 30.06 in /  1017.8 hPa SSE 0.6 mph /  1 km/h 3.5 mph /  5.6 km/h 86 % 0.00 in /  0 mm
01:58 27.4 °F /  -2.6 °C 23.8 °F /  -4.6 °C 30.06 in /  1017.8 hPa SSE 0.4 mph /  0.6 km/h 3.5 mph /  5.6 km/h 86 % 0.00 in /  0 mm
02:03 27.4 °F /  -2.6 °C 23.8 °F /  -4.6 °C 30.06 in /  1017.8 hPa Calm   3.0 mph /  4.8 km/h 86 % 0.00 in /  0 mm
02:08 27.5 °F /  -2.5 °C 23.9 °F /  -4.5 °C 30.06 in /  1017.8 hPa Calm   3.0 mph /  4.8 km/h 86 % 0.00 in /  0 mm
02:13 27.5 °F /  -2.5 °C 24.1 °F /  -4.4 °C 30.06 in /  1017.8 hPa Calm   2.0 mph /  3.2 km/h 87 % 0.00 in /  0 mm
02:18 27.6 °F /  -2.4 °C 24.2 °F /  -4.3 °C 30.05 in /  1017.5 hPa ESE 1.0 mph /  1.6 km/h 4.0 mph /  6.4 km/h 87 % 0.00 in /  0 mm
02:23 27.6 °F /  -2.4 °C 24.2 °F /  -4.3 °C 30.05 in /  1017.5 hPa ESE 1.0 mph /  1.6 km/h 3.0 mph /  4.8 km/h 87 % 0.00 in /  0 mm
02:28 27.6 °F /  -2.4 °C 24.2 °F /  -4.3 °C 30.05 in /  1017.5 hPa Calm   3.0 mph /  4.8 km/h 87 % 0.00 in /  0 mm
02:33 27.6 °F /  -2.4 °C 24.2 °F /  -4.3 °C 30.04 in /  1017.2 hPa ESE 1.0 mph /  1.6 km/h 2.0 mph /  3.2 km/h 87 % 0.00 in /  0 mm
02:38 27.7 °F /  -2.4 °C 24.3 °F /  -4.3 °C 30.03 in /  1016.8 hPa ESE 3.0 mph /  4.8 km/h 7.0 mph /  11.3 km/h 87 % 0.00 in /  0 mm
02:43 27.8 °F /  -2.3 °C 24.4 °F /  -4.2 °C 30.03 in /  1016.8 hPa ESE 0.4 mph /  0.6 km/h 2.3 mph /  3.7 km/h 87 % 0.00 in /  0 mm
02:48 27.8 °F /  -2.3 °C 24.4 °F /  -4.2 °C 30.03 in /  1016.8 hPa SE 1.0 mph /  1.6 km/h 3.0 mph /  4.8 km/h 87 % 0.00 in /  0 mm
02:53 27.9 °F /  -2.3 °C 24.5 °F /  -4.2 °C 30.02 in /  1016.5 hPa SE 0.2 mph /  0.3 km/h 3.5 mph /  5.6 km/h 87 % 0.00 in /  0 mm
02:58 27.9 °F /  -2.3 °C 24.5 °F /  -4.2 °C 30.02 in /  1016.5 hPa SE 0.7 mph /  1.1 km/h 1.2 mph /  1.9 km/h 87 % 0.00 in /  0 mm
03:03 28.0 °F /  -2.2 °C 24.9 °F /  -3.9 °C 30.01 in /  1016.1 hPa SE 2.2 mph /  3.5 km/h 3.5 mph /  5.6 km/h 88 % 0.00 in /  0 mm
03:08 28.1 °F /  -2.2 °C 25.0 °F /  -3.9 °C 30.00 in /  1015.8 hPa SE 1.0 mph /  1.6 km/h 5.0 mph /  8 km/h 88 % 0.00 in /  0 mm
03:13 28.2 °F /  -2.1 °C 25.1 °F /  -3.8 °C 29.99 in /  1015.5 hPa ESE 1.0 mph /  1.6 km/h 3.0 mph /  4.8 km/h 88 % 0.00 in /  0 mm
03:18 28.3 °F /  -2.1 °C 25.2 °F /  -3.8 °C 29.99 in /  1015.5 hPa ESE 2.0 mph /  3.2 km/h 6.0 mph /  9.7 km/h 88 % 0.00 in /  0 mm
03:23 28.4 °F /  -2 °C 25.3 °F /  -3.7 °C 29.99 in /  1015.5 hPa ESE 2.0 mph /  3.2 km/h 4.0 mph /  6.4 km/h 88 % 0.00 in /  0 mm
03:28 28.5 °F /  -1.9 °C 25.4 °F /  -3.7 °C 29.98 in /  1015.1 hPa SE 2.0 mph /  3.2 km/h 7.0 mph /  11.3 km/h 88 % 0.00 in /  0 mm
03:33 28.5 °F /  -1.9 °C 25.4 °F /  -3.7 °C 29.99 in /  1015.5 hPa SE 1.0 mph /  1.6 km/h 4.0 mph /  6.4 km/h 88 % 0.00 in /  0 mm
03:38 28.6 °F /  -1.9 °C 25.5 °F /  -3.6 °C 29.98 in /  1015.1 hPa SSE 2.0 mph /  3.2 km/h 6.0 mph /  9.7 km/h 88 % 0.00 in /  0 mm
03:43 28.7 °F /  -1.8 °C 25.6 °F /  -3.6 °C 29.98 in /  1015.1 hPa SE 1.0 mph /  1.6 km/h 4.0 mph /  6.4 km/h 88 % 0.00 in /  0 mm
03:48 28.8 °F /  -1.8 °C 25.7 °F /  -3.5 °C 29.97 in /  1014.8 hPa SE 2.0 mph /  3.2 km/h 6.0 mph /  9.7 km/h 88 % 0.00 in /  0 mm
03:53 28.9 °F /  -1.7 °C 25.8 °F /  -3.4 °C 29.97 in /  1014.8 hPa SSE 2.0 mph /  3.2 km/h 6.0 mph /  9.7 km/h 88 % 0.00 in /  0 mm
03:58 29.0 °F /  -1.7 °C 25.9 °F /  -3.4 °C 29.98 in /  1015.1 hPa SSE 1.9 mph /  3.1 km/h 3.5 mph /  5.6 km/h 88 % 0.00 in /  0 mm
04:03 29.2 °F /  -1.6 °C 26.1 °F /  -3.3 °C 29.97 in /  1014.8 hPa SSE 2.4 mph /  3.9 km/h 4.6 mph /  7.4 km/h 88 % 0.00 in /  0 mm
04:08 29.3 °F /  -1.5 °C 26.2 °F /  -3.2 °C 29.97 in /  1014.8 hPa SE 3.5 mph /  5.6 km/h 5.8 mph /  9.3 km/h 88 % 0.00 in /  0 mm
04:13 29.4 °F /  -1.4 °C 26.3 °F /  -3.2 °C 29.97 in /  1014.8 hPa SSE 1.8 mph /  2.9 km/h 3.5 mph /  5.6 km/h 88 % 0.00 in /  0 mm
04:18 29.4 °F /  -1.4 °C 26.3 °F /  -3.2 °C 29.97 in /  1014.8 hPa SSE 1.3 mph /  2.1 km/h 2.3 mph /  3.7 km/h 88 % 0.00 in /  0 mm
04:23 29.5 °F /  -1.4 °C 26.4 °F /  -3.1 °C 29.96 in /  1014.4 hPa SSE 0.4 mph /  0.6 km/h 2.3 mph /  3.7 km/h 88 % 0.00 in /  0 mm
04:28 29.6 °F /  -1.3 °C 26.5 °F /  -3.1 °C 29.96 in /  1014.4 hPa SE 0.2 mph /  0.3 km/h 3.5 mph /  5.6 km/h 88 % 0.00 in /  0 mm
04:34 29.6 °F /  -1.3 °C 26.5 °F /  -3.1 °C 29.96 in /  1014.4 hPa SE 1.0 mph /  1.6 km/h 3.0 mph /  4.8 km/h 88 % 0.00 in /  0 mm
04:39 29.7 °F /  -1.3 °C 26.6 °F /  -3 °C 29.97 in /  1014.8 hPa SE 0.2 mph /  0.3 km/h 1.2 mph /  1.9 km/h 88 % 0.00 in /  0 mm
04:44 29.8 °F /  -1.2 °C 26.7 °F /  -2.9 °C 29.96 in /  1014.4 hPa SE 0.5 mph /  0.8 km/h 1.2 mph /  1.9 km/h 88 % 0.00 in /  0 mm
04:49 29.9 °F /  -1.2 °C 26.8 °F /  -2.9 °C 29.96 in /  1014.4 hPa SE 0.3 mph /  0.5 km/h 1.2 mph /  1.9 km/h 88 % 0.00 in /  0 mm
04:54 29.9 °F /  -1.2 °C 26.8 °F /  -2.9 °C 29.95 in /  1014.1 hPa SE 0.1 mph /  0.2 km/h 1.2 mph /  1.9 km/h 88 % 0.00 in /  0 mm
04:59 30.0 °F /  -1.1 °C 27.2 °F /  -2.7 °C 29.95 in /  1014.1 hPa Calm     89 % 0.00 in /  0 mm
05:04 30.1 °F /  -1.1 °C 27.3 °F /  -2.6 °C 29.95 in /  1014.1 hPa Calm     89 % 0.00 in /  0 mm
05:09 30.1 °F /  -1.1 °C 27.3 °F /  -2.6 °C 29.95 in /  1014.1 hPa Calm     89 % 0.00 in /  0 mm
05:14 30.1 °F /  -1.1 °C 27.3 °F /  -2.6 °C 29.94 in /  1013.8 hPa Calm     89 % 0.00 in /  0 mm
05:19 30.2 °F /  -1 °C 27.3 °F /  -2.6 °C 29.93 in /  1013.4 hPa Calm     89 % 0.00 in /  0 mm
05:24 30.3 °F /  -0.9 °C 27.4 °F /  -2.6 °C 29.93 in /  1013.4 hPa Calm     89 % 0.00 in /  0 mm
05:29 30.3 °F /  -0.9 °C 27.4 °F /  -2.6 °C 29.93 in /  1013.4 hPa Calm     89 % 0.00 in /  0 mm
05:34 30.3 °F /  -0.9 °C 27.4 °F /  -2.6 °C 29.93 in /  1013.4 hPa Calm     89 % 0.00 in /  0 mm
05:39 30.4 °F /  -0.9 °C 27.5 °F /  -2.5 °C 29.93 in /  1013.4 hPa Calm     89 % 0.00 in /  0 mm
05:44 30.5 °F /  -0.8 °C 27.6 °F /  -2.4 °C 29.93 in /  1013.4 hPa Calm     89 % 0.00 in /  0 mm
05:49 30.5 °F /  -0.8 °C 27.9 °F /  -2.3 °C 29.94 in /  1013.8 hPa SE 0.2 mph /  0.3 km/h 1.2 mph /  1.9 km/h 90 % 0.00 in /  0 mm
05:55 30.6 °F /  -0.8 °C 28.0 °F /  -2.2 °C 29.93 in /  1013.4 hPa SE 0.7 mph /  1.1 km/h 2.0 mph /  3.2 km/h 90 % 0.00 in /  0 mm
06:00 30.6 °F /  -0.8 °C 28.0 °F /  -2.2 °C 29.93 in /  1013.4 hPa Calm     90 % 0.00 in /  0 mm
06:05 30.6 °F /  -0.8 °C 28.0 °F /  -2.2 °C 29.92 in /  1013.1 hPa Calm     90 % 0.00 in /  0 mm
06:10 30.6 °F /  -0.8 °C 28.0 °F /  -2.2 °C 29.93 in /  1013.4 hPa Calm     90 % 0.00 in /  0 mm
06:15 30.6 °F /  -0.8 °C 28.0 °F /  -2.2 °C 29.93 in /  1013.4 hPa Calm   1.0 mph /  1.6 km/h 90 % 0.00 in /  0 mm
06:20 30.7 °F /  -0.7 °C 28.1 °F /  -2.2 °C 29.93 in /  1013.4 hPa Calm     90 % 0.00 in /  0 mm
06:25 30.7 °F /  -0.7 °C 28.1 °F /  -2.2 °C 29.93 in /  1013.4 hPa Calm     90 % 0.00 in /  0 mm
06:30 30.8 °F /  -0.7 °C 28.2 °F /  -2.1 °C 29.93 in /  1013.4 hPa Calm     90 % 0.00 in /  0 mm
06:35 30.8 °F /  -0.7 °C 28.2 °F /  -2.1 °C 29.93 in /  1013.4 hPa SE 0.1 mph /  0.2 km/h 1.0 mph /  1.6 km/h 90 % 0.00 in /  0 mm
06:40 30.9 °F /  -0.6 °C 28.3 °F /  -2.1 °C 29.93 in /  1013.4 hPa Calm     90 % 0.00 in /  0 mm
06:45 30.9 °F /  -0.6 °C 28.3 °F /  -2.1 °C 29.92 in /  1013.1 hPa Calm     90 % 0.00 in /  0 mm
06:50 31.0 °F /  -0.6 °C 28.4 °F /  -2 °C 29.92 in /  1013.1 hPa Calm     90 % 0.00 in /  0 mm
06:55 31.0 °F /  -0.6 °C 28.4 °F /  -2 °C 29.92 in /  1013.1 hPa Calm     90 % 0.00 in /  0 mm
07:00 31.0 °F /  -0.6 °C 28.4 °F /  -2 °C 29.92 in /  1013.1 hPa Calm     90 % 0.00 in /  0 mm
07:06 31.1 °F /  -0.5 °C 28.8 °F /  -1.8 °C 29.92 in /  1013.1 hPa Calm     91 % 0.00 in /  0 mm
07:11 31.1 °F /  -0.5 °C 28.8 °F /  -1.8 °C 29.92 in /  1013.1 hPa Calm     91 % 0.00 in /  0 mm
07:16 31.1 °F /  -0.5 °C 28.5 °F /  -1.9 °C 29.93 in /  1013.4 hPa SE 1.1 mph /  1.8 km/h 2.3 mph /  3.7 km/h 90 % 0.00 in /  0 mm
07:21 31.2 °F /  -0.4 °C 28.9 °F /  -1.7 °C 29.93 in /  1013.4 hPa Calm   1.2 mph /  1.9 km/h 91 % 0.00 in /  0 mm
07:26 31.2 °F /  -0.4 °C 28.6 °F /  -1.9 °C 29.93 in /  1013.4 hPa Calm     90 % 0.00 in /  0 mm
07:31 31.2 °F /  -0.4 °C 28.6 °F /  -1.9 °C 29.92 in /  1013.1 hPa SE 0.5 mph /  0.8 km/h 2.3 mph /  3.7 km/h 90 % 0.00 in /  0 mm
07:36 31.3 °F /  -0.4 °C 28.7 °F /  -1.8 °C 29.92 in /  1013.1 hPa Calm   1.2 mph /  1.9 km/h 90 % 0.00 in /  0 mm
07:41 31.3 °F /  -0.4 °C 29.0 °F /  -1.7 °C 29.92 in /  1013.1 hPa Calm   1.2 mph /  1.9 km/h 91 % 0.00 in /  0 mm
07:46 31.4 °F /  -0.3 °C 29.1 °F /  -1.6 °C 29.92 in /  1013.1 hPa Calm   1.2 mph /  1.9 km/h 91 % 0.00 in /  0 mm
07:51 31.5 °F /  -0.3 °C 29.2 °F /  -1.6 °C 29.92 in /  1013.1 hPa Calm     91 % 0.00 in /  0 mm
07:56 31.5 °F /  -0.3 °C 29.2 °F /  -1.6 °C 29.92 in /  1013.1 hPa Calm     91 % 0.00 in /  0 mm
08:01 31.6 °F /  -0.2 °C 29.3 °F /  -1.5 °C 29.92 in /  1013.1 hPa Calm     91 % 0.00 in /  0 mm
08:06 31.7 °F /  -0.2 °C 29.4 °F /  -1.4 °C 29.92 in /  1013.1 hPa Calm     91 % 0.00 in /  0 mm
08:11 31.9 °F /  -0.1 °C 29.6 °F /  -1.3 °C 29.93 in /  1013.4 hPa Calm     91 % 0.00 in /  0 mm
08:16 32.0 °F /  0 °C 29.7 °F /  -1.3 °C 29.93 in /  1013.4 hPa Calm     91 % 0.00 in /  0 mm
08:21 32.1 °F /  0.1 °C 29.8 °F /  -1.2 °C 29.93 in /  1013.4 hPa Calm     91 % 0.00 in /  0 mm
08:27 32.3 °F /  0.2 °C 30.0 °F /  -1.1 °C 29.92 in /  1013.1 hPa Calm     91 % 0.00 in /  0 mm
08:32 32.5 °F /  0.3 °C 30.2 °F /  -1 °C 29.92 in /  1013.1 hPa Calm     91 % 0.00 in /  0 mm
08:37 32.7 °F /  0.4 °C 30.4 °F /  -0.9 °C 29.92 in /  1013.1 hPa Calm     91 % 0.00 in /  0 mm
08:42 32.9 °F /  0.5 °C 30.8 °F /  -0.7 °C 29.93 in /  1013.4 hPa Calm     92 % 0.00 in /  0 mm
08:47 33.1 °F /  0.6 °C 31.0 °F /  -0.6 °C 29.92 in /  1013.1 hPa Calm     92 % 0.00 in /  0 mm
08:52 33.3 °F /  0.7 °C 31.2 °F /  -0.4 °C 29.92 in /  1013.1 hPa Calm     92 % 0.00 in /  0 mm
08:57 33.6 °F /  0.9 °C 31.5 °F /  -0.3 °C 29.92 in /  1013.1 hPa Calm     92 % 0.00 in /  0 mm
09:02 33.8 °F /  1 °C 31.7 °F /  -0.2 °C 29.91 in /  1012.8 hPa Calm     92 % 0.00 in /  0 mm
09:07 34.0 °F /  1.1 °C 31.9 °F /  -0.1 °C 29.92 in /  1013.1 hPa Calm   1.2 mph /  1.9 km/h 92 % 0.00 in /  0 mm
09:12 34.4 °F /  1.3 °C 32.0 °F /  0 °C 29.92 in /  1013.1 hPa South 0.4 mph /  0.6 km/h 2.3 mph /  3.7 km/h 91 % 0.00 in /  0 mm
09:17 34.7 °F /  1.5 °C 32.3 °F /  0.2 °C 29.92 in /  1013.1 hPa South 0.4 mph /  0.6 km/h 2.3 mph /  3.7 km/h 91 % 0.00 in /  0 mm
09:22 35.0 °F /  1.7 °C 32.6 °F /  0.3 °C 29.92 in /  1013.1 hPa Calm   1.2 mph /  1.9 km/h 91 % 0.00 in /  0 mm
09:27 35.3 °F /  1.8 °C 32.7 °F /  0.4 °C 29.92 in /  1013.1 hPa Calm     90 % 0.00 in /  0 mm
09:32 35.7 °F /  2.1 °C 33.1 °F /  0.6 °C 29.92 in /  1013.1 hPa West 1.7 mph /  2.7 km/h 3.5 mph /  5.6 km/h 90 % 0.00 in /  0 mm
09:37 36.1 °F /  2.3 °C 33.2 °F /  0.7 °C 29.93 in /  1013.4 hPa West 0.1 mph /  0.2 km/h 1.2 mph /  1.9 km/h 89 % 0.00 in /  0 mm
09:42 36.4 °F /  2.4 °C 33.5 °F /  0.8 °C 29.93 in /  1013.4 hPa West 0.3 mph /  0.5 km/h 2.3 mph /  3.7 km/h 89 % 0.00 in /  0 mm
09:47 36.7 °F /  2.6 °C 33.5 °F /  0.8 °C 29.91 in /  1012.8 hPa Calm   2.3 mph /  3.7 km/h 88 % 0.00 in /  0 mm
09:53 37.0 °F /  2.8 °C 33.8 °F /  1 °C 29.92 in /  1013.1 hPa West 0.1 mph /  0.2 km/h 1.0 mph /  1.6 km/h 88 % 0.00 in /  0 mm
09:58 37.2 °F /  2.9 °C 33.7 °F /  0.9 °C 29.92 in /  1013.1 hPa WNW 0.6 mph /  1 km/h 2.3 mph /  3.7 km/h 87 % 0.00 in /  0 mm
10:03 37.4 °F /  3 °C 33.6 °F /  0.9 °C 29.92 in /  1013.1 hPa WNW 1.8 mph /  2.9 km/h 3.5 mph /  5.6 km/h 86 % 0.00 in /  0 mm
10:08 37.6 °F /  3.1 °C 33.5 °F /  0.8 °C 29.92 in /  1013.1 hPa Calm   1.2 mph /  1.9 km/h 85 % 0.00 in /  0 mm
10:13 37.8 °F /  3.2 °C 33.7 °F /  0.9 °C 29.92 in /  1013.1 hPa WNW 1.7 mph /  2.7 km/h 3.5 mph /  5.6 km/h 85 % 0.00 in /  0 mm
10:18 38.0 °F /  3.3 °C 33.6 °F /  0.9 °C 29.92 in /  1013.1 hPa WNW 0.8 mph /  1.3 km/h 3.5 mph /  5.6 km/h 84 % 0.00 in /  0 mm
10:23 38.2 °F /  3.4 °C 33.8 °F /  1 °C 29.91 in /  1012.8 hPa WNW 1.5 mph /  2.4 km/h 3.5 mph /  5.6 km/h 84 % 0.00 in /  0 mm
10:28 38.3 °F /  3.5 °C 33.9 °F /  1.1 °C 29.92 in /  1013.1 hPa WNW 0.5 mph /  0.8 km/h 2.3 mph /  3.7 km/h 84 % 0.00 in /  0 mm
10:33 38.4 °F /  3.6 °C 34.0 °F /  1.1 °C 29.92 in /  1013.1 hPa WNW 1.1 mph /  1.8 km/h 2.3 mph /  3.7 km/h 84 % 0.00 in /  0 mm
10:38 38.7 °F /  3.7 °C 34.3 °F /  1.3 °C 29.91 in /  1012.8 hPa WNW 0.5 mph /  0.8 km/h 1.2 mph /  1.9 km/h 84 % 0.00 in /  0 mm
10:43 38.8 °F /  3.8 °C 34.4 °F /  1.3 °C 29.92 in /  1013.1 hPa WNW 1.4 mph /  2.3 km/h 3.0 mph /  4.8 km/h 84 % 0.00 in /  0 mm
10:48 38.9 °F /  3.8 °C 34.5 °F /  1.4 °C 29.91 in /  1012.8 hPa WNW 1.1 mph /  1.8 km/h 3.5 mph /  5.6 km/h 84 % 0.00 in /  0 mm
10:53 39.0 °F /  3.9 °C 34.6 °F /  1.4 °C 29.92 in /  1013.1 hPa WNW 2.4 mph /  3.9 km/h 3.5 mph /  5.6 km/h 84 % 0.00 in /  0 mm
10:58 39.0 °F /  3.9 °C 34.3 °F /  1.3 °C 29.92 in /  1013.1 hPa WNW 0.9 mph /  1.4 km/h 3.5 mph /  5.6 km/h 83 % 0.00 in /  0 mm
11:03 39.1 °F /  3.9 °C 34.4 °F /  1.3 °C 29.92 in /  1013.1 hPa WNW 2.0 mph /  3.2 km/h 4.0 mph /  6.4 km/h 83 % 0.00 in /  0 mm
11:08 39.3 °F /  4.1 °C 34.3 °F /  1.3 °C 29.92 in /  1013.1 hPa West 1.0 mph /  1.6 km/h 5.0 mph /  8 km/h 82 % 0.00 in /  0 mm
11:13 39.6 °F /  4.2 °C 33.9 °F /  1.1 °C 29.92 in /  1013.1 hPa WSW 2.0 mph /  3.2 km/h 5.0 mph /  8 km/h 80 % 0.00 in /  0 mm
11:18 39.8 °F /  4.3 °C 33.8 °F /  1 °C 29.91 in /  1012.8 hPa West 2.5 mph /  4 km/h 4.6 mph /  7.4 km/h 79 % 0.00 in /  0 mm
11:24 40.0 °F /  4.4 °C 33.0 °F /  0.6 °C 29.90 in /  1012.4 hPa WSW 4.6 mph /  7.4 km/h 6.9 mph /  11.1 km/h 76 % 0.00 in /  0 mm
11:29 40.3 °F /  4.6 °C 33.3 °F /  0.7 °C 29.91 in /  1012.8 hPa West 2.7 mph /  4.3 km/h 4.0 mph /  6.4 km/h 76 % 0.00 in /  0 mm
11:34 40.5 °F /  4.7 °C 33.2 °F /  0.7 °C 29.90 in /  1012.4 hPa WSW 3.3 mph /  5.3 km/h 5.0 mph /  8 km/h 75 % 0.00 in /  0 mm
11:39 40.6 °F /  4.8 °C 33.3 °F /  0.7 °C 29.90 in /  1012.4 hPa Calm   1.0 mph /  1.6 km/h 75 % 0.00 in /  0 mm
11:44 40.6 °F /  4.8 °C 33.6 °F /  0.9 °C 29.90 in /  1012.4 hPa NW 1.8 mph /  2.9 km/h 2.3 mph /  3.7 km/h 76 % 0.00 in /  0 mm
11:49 40.6 °F /  4.8 °C 33.6 °F /  0.9 °C 29.91 in /  1012.8 hPa WNW 2.7 mph /  4.3 km/h 5.8 mph /  9.3 km/h 76 % 0.00 in /  0 mm
11:54 40.5 °F /  4.7 °C 33.5 °F /  0.8 °C 29.90 in /  1012.4 hPa West 2.8 mph /  4.5 km/h 3.5 mph /  5.6 km/h 76 % 0.00 in /  0 mm
11:59 40.3 °F /  4.6 °C 33.3 °F /  0.7 °C 29.90 in /  1012.4 hPa Calm   1.2 mph /  1.9 km/h 76 % 0.00 in /  0 mm
12:04 40.4 °F /  4.7 °C 33.4 °F /  0.8 °C 29.90 in /  1012.4 hPa WNW 0.4 mph /  0.6 km/h 1.2 mph /  1.9 km/h 76 % 0.00 in /  0 mm
12:09 40.4 °F /  4.7 °C 32.8 °F /  0.4 °C 29.90 in /  1012.4 hPa WNW 1.3 mph /  2.1 km/h 3.5 mph /  5.6 km/h 74 % 0.00 in /  0 mm
12:14 40.5 °F /  4.7 °C 33.2 °F /  0.7 °C 29.90 in /  1012.4 hPa WNW 1.7 mph /  2.7 km/h 3.5 mph /  5.6 km/h 75 % 0.00 in /  0 mm
12:19 40.6 °F /  4.8 °C 32.3 °F /  0.2 °C 29.90 in /  1012.4 hPa WNW 0.3 mph /  0.5 km/h 1.2 mph /  1.9 km/h 72 % 0.00 in /  0 mm
12:24 40.9 °F /  4.9 °C 33.2 °F /  0.7 °C 29.89 in /  1012.1 hPa WNW 0.9 mph /  1.4 km/h 2.3 mph /  3.7 km/h 74 % 0.00 in /  0 mm
12:29 41.0 °F /  5 °C 32.3 °F /  0.2 °C 29.89 in /  1012.1 hPa West 3.2 mph /  5.1 km/h 5.0 mph /  8 km/h 71 % 0.00 in /  0 mm
12:34 41.2 °F /  5.1 °C 32.2 °F /  0.1 °C 29.89 in /  1012.1 hPa West 1.9 mph /  3.1 km/h 4.0 mph /  6.4 km/h 70 % 0.00 in /  0 mm
12:39 41.4 °F /  5.2 °C 32.7 °F /  0.4 °C 29.89 in /  1012.1 hPa West 0.2 mph /  0.3 km/h 1.2 mph /  1.9 km/h 71 % 0.00 in /  0 mm
12:44 41.6 °F /  5.3 °C 31.4 °F /  -0.3 °C 29.89 in /  1012.1 hPa WSW 4.0 mph /  6.4 km/h 4.6 mph /  7.4 km/h 67 % 0.00 in /  0 mm
12:49 41.8 °F /  5.4 °C 32.4 °F /  0.2 °C 29.89 in /  1012.1 hPa West 1.7 mph /  2.7 km/h 3.5 mph /  5.6 km/h 69 % 0.00 in /  0 mm
12:54 41.8 °F /  5.4 °C 32.7 °F /  0.4 °C 29.89 in /  1012.1 hPa NW 1.4 mph /  2.3 km/h 4.6 mph /  7.4 km/h 70 % 0.00 in /  0 mm
12:59 42.0 °F /  5.6 °C 32.6 °F /  0.3 °C 29.88 in /  1011.7 hPa Calm   1.0 mph /  1.6 km/h 69 % 0.00 in /  0 mm
13:04 42.2 °F /  5.7 °C 32.0 °F /  0 °C 29.87 in /  1011.4 hPa West 0.4 mph /  0.6 km/h 3.0 mph /  4.8 km/h 67 % 0.00 in /  0 mm
13:09 42.4 °F /  5.8 °C 30.7 °F /  -0.7 °C 29.87 in /  1011.4 hPa WSW 1.6 mph /  2.6 km/h 3.5 mph /  5.6 km/h 63 % 0.00 in /  0 mm
13:15 42.5 °F /  5.8 °C 32.3 °F /  0.2 °C 29.88 in /  1011.7 hPa WNW 1.6 mph /  2.6 km/h 3.5 mph /  5.6 km/h 67 % 0.00 in /  0 mm
13:20 42.5 °F /  5.8 °C 31.9 °F /  -0.1 °C 29.88 in /  1011.7 hPa West 0.1 mph /  0.2 km/h 3.0 mph /  4.8 km/h 66 % 0.00 in /  0 mm
13:25 42.4 °F /  5.8 °C 31.5 °F /  -0.3 °C 29.88 in /  1011.7 hPa NW 0.3 mph /  0.5 km/h 3.5 mph /  5.6 km/h 65 % 0.00 in /  0 mm
13:30 42.4 °F /  5.8 °C 31.8 °F /  -0.1 °C 29.87 in /  1011.4 hPa NW 0.6 mph /  1 km/h 3.5 mph /  5.6 km/h 66 % 0.00 in /  0 mm
13:35 42.5 °F /  5.8 °C 31.9 °F /  -0.1 °C 29.86 in /  1011.1 hPa WNW 1.0 mph /  1.6 km/h 3.0 mph /  4.8 km/h 66 % 0.00 in /  0 mm
13:40 42.5 °F /  5.8 °C 31.2 °F /  -0.4 °C 29.86 in /  1011.1 hPa WSW 0.8 mph /  1.3 km/h 3.5 mph /  5.6 km/h 64 % 0.00 in /  0 mm
13:45 42.5 °F /  5.8 °C 30.4 °F /  -0.9 °C 29.86 in /  1011.1 hPa SW 4.6 mph /  7.4 km/h 5.8 mph /  9.3 km/h 62 % 0.00 in /  0 mm
13:50 42.6 °F /  5.9 °C 30.5 °F /  -0.8 °C 29.86 in /  1011.1 hPa WSW 3.6 mph /  5.8 km/h 5.8 mph /  9.3 km/h 62 % 0.00 in /  0 mm
13:55 42.5 °F /  5.8 °C 30.8 °F /  -0.7 °C 29.86 in /  1011.1 hPa West 2.6 mph /  4.2 km/h 4.6 mph /  7.4 km/h 63 % 0.00 in /  0 mm
14:00 42.5 °F /  5.8 °C 31.6 °F /  -0.2 °C 29.87 in /  1011.4 hPa West 1.5 mph /  2.4 km/h 2.3 mph /  3.7 km/h 65 % 0.00 in /  0 mm
14:05 42.6 °F /  5.9 °C 32.0 °F /  0 °C 29.87 in /  1011.4 hPa WNW 1.4 mph /  2.3 km/h 3.5 mph /  5.6 km/h 66 % 0.00 in /  0 mm
14:10 42.4 °F /  5.8 °C 31.1 °F /  -0.5 °C 29.87 in /  1011.4 hPa WNW 1.8 mph /  2.9 km/h 3.5 mph /  5.6 km/h 64 % 0.00 in /  0 mm
14:15 42.3 °F /  5.7 °C 31.0 °F /  -0.6 °C 29.87 in /  1011.4 hPa NW 1.9 mph /  3.1 km/h 4.0 mph /  6.4 km/h 64 % 0.00 in /  0 mm
14:20 42.2 °F /  5.7 °C 30.9 °F /  -0.6 °C 29.88 in /  1011.7 hPa WNW 0.8 mph /  1.3 km/h 2.3 mph /  3.7 km/h 64 % 0.00 in /  0 mm
14:26 42.1 °F /  5.6 °C 31.2 °F /  -0.4 °C 29.88 in /  1011.7 hPa NW 1.9 mph /  3.1 km/h 3.5 mph /  5.6 km/h 65 % 0.00 in /  0 mm
14:31 42.1 °F /  5.6 °C 31.2 °F /  -0.4 °C 29.87 in /  1011.4 hPa NW 1.0 mph /  1.6 km/h 2.3 mph /  3.7 km/h 65 % 0.00 in /  0 mm
14:36 42.2 °F /  5.7 °C 30.9 °F /  -0.6 °C 29.88 in /  1011.7 hPa NW 0.9 mph /  1.4 km/h 2.3 mph /  3.7 km/h 64 % 0.00 in /  0 mm
14:41 42.2 °F /  5.7 °C 30.9 °F /  -0.6 °C 29.88 in /  1011.7 hPa NW 0.8 mph /  1.3 km/h 2.3 mph /  3.7 km/h 64 % 0.00 in /  0 mm
14:46 42.2 °F /  5.7 °C 30.9 °F /  -0.6 °C 29.88 in /  1011.7 hPa NW 0.1 mph /  0.2 km/h 1.2 mph /  1.9 km/h 64 % 0.00 in /  0 mm
14:51 42.3 °F /  5.7 °C 30.6 °F /  -0.8 °C 29.88 in /  1011.7 hPa NW 0.6 mph /  1 km/h 3.5 mph /  5.6 km/h 63 % 0.00 in /  0 mm
14:56 42.3 °F /  5.7 °C 30.6 °F /  -0.8 °C 29.89 in /  1012.1 hPa NW 1.5 mph /  2.4 km/h 3.5 mph /  5.6 km/h 63 % 0.00 in /  0 mm
15:01 42.3 °F /  5.7 °C 30.6 °F /  -0.8 °C 29.89 in /  1012.1 hPa WNW 0.8 mph /  1.3 km/h 2.3 mph /  3.7 km/h 63 % 0.00 in /  0 mm
15:06 42.3 °F /  5.7 °C 30.6 °F /  -0.8 °C 29.90 in /  1012.4 hPa WNW 0.2 mph /  0.3 km/h 2.3 mph /  3.7 km/h 63 % 0.00 in /  0 mm
15:11 42.3 °F /  5.7 °C 30.2 °F /  -1 °C 29.90 in /  1012.4 hPa WNW 1.2 mph /  1.9 km/h 3.5 mph /  5.6 km/h 62 % 0.00 in /  0 mm
15:16 42.4 °F /  5.8 °C 30.3 °F /  -0.9 °C 29.90 in /  1012.4 hPa WNW 2.1 mph /  3.4 km/h 4.0 mph /  6.4 km/h 62 % 0.00 in /  0 mm
15:21 42.5 °F /  5.8 °C 30.4 °F /  -0.9 °C 29.91 in /  1012.8 hPa WNW 1.0 mph /  1.6 km/h 2.3 mph /  3.7 km/h 62 % 0.00 in /  0 mm
15:26 42.6 °F /  5.9 °C 29.7 °F /  -1.3 °C 29.91 in /  1012.8 hPa WNW 0.3 mph /  0.5 km/h 3.5 mph /  5.6 km/h 60 % 0.00 in /  0 mm
15:31 42.7 °F /  5.9 °C 29.8 °F /  -1.2 °C 29.91 in /  1012.8 hPa WNW 0.7 mph /  1.1 km/h 3.5 mph /  5.6 km/h 60 % 0.00 in /  0 mm
15:36 42.9 °F /  6.1 °C 30.4 °F /  -0.9 °C 29.91 in /  1012.8 hPa WNW 2.6 mph /  4.2 km/h 3.5 mph /  5.6 km/h 61 % 0.00 in /  0 mm
15:42 42.9 °F /  6.1 °C 29.5 °F /  -1.4 °C 29.91 in /  1012.8 hPa WNW 2.1 mph /  3.4 km/h 3.5 mph /  5.6 km/h 59 % 0.00 in /  0 mm
15:47 43.0 °F /  6.1 °C 30.5 °F /  -0.8 °C 29.92 in /  1013.1 hPa WNW 1.4 mph /  2.3 km/h 3.5 mph /  5.6 km/h 61 % 0.00 in /  0 mm
15:52 43.0 °F /  6.1 °C 30.5 °F /  -0.8 °C 29.92 in /  1013.1 hPa WNW 0.3 mph /  0.5 km/h 1.2 mph /  1.9 km/h 61 % 0.00 in /  0 mm
15:57 43.1 °F /  6.2 °C 31.0 °F /  -0.6 °C 29.92 in /  1013.1 hPa Calm     62 % 0.00 in /  0 mm
16:02 43.1 °F /  6.2 °C 31.0 °F /  -0.6 °C 29.92 in /  1013.1 hPa WNW 0.1 mph /  0.2 km/h 1.0 mph /  1.6 km/h 62 % 0.00 in /  0 mm
16:07 43.0 °F /  6.1 °C 30.1 °F /  -1.1 °C 29.92 in /  1013.1 hPa WNW 0.3 mph /  0.5 km/h 1.2 mph /  1.9 km/h 60 % 0.00 in /  0 mm
16:12 43.0 °F /  6.1 °C 30.5 °F /  -0.8 °C 29.93 in /  1013.4 hPa WNW 1.1 mph /  1.8 km/h 3.5 mph /  5.6 km/h 61 % 0.00 in /  0 mm
16:17 42.9 °F /  6.1 °C 30.0 °F /  -1.1 °C 29.93 in /  1013.4 hPa WNW 0.8 mph /  1.3 km/h 2.3 mph /  3.7 km/h 60 % 0.00 in /  0 mm
16:22 42.8 °F /  6 °C 30.3 °F /  -0.9 °C 29.92 in /  1013.1 hPa WNW 1.2 mph /  1.9 km/h 3.5 mph /  5.6 km/h 61 % 0.00 in /  0 mm
16:27 42.7 °F /  5.9 °C 29.8 °F /  -1.2 °C 29.92 in /  1013.1 hPa WNW 2.1 mph /  3.4 km/h 3.5 mph /  5.6 km/h 60 % 0.00 in /  0 mm
16:32 42.6 °F /  5.9 °C 30.1 °F /  -1.1 °C 29.92 in /  1013.1 hPa Calm     61 % 0.00 in /  0 mm
16:37 42.6 °F /  5.9 °C 30.9 °F /  -0.6 °C 29.92 in /  1013.1 hPa Calm     63 % 0.00 in /  0 mm
16:42 42.5 °F /  5.8 °C 31.2 °F /  -0.4 °C 29.92 in /  1013.1 hPa Calm     64 % 0.00 in /  0 mm
16:47 42.4 °F /  5.8 °C 31.1 °F /  -0.5 °C 29.92 in /  1013.1 hPa Calm   1.2 mph /  1.9 km/h 64 % 0.00 in /  0 mm
16:52 42.3 °F /  5.7 °C 30.6 °F /  -0.8 °C 29.92 in /  1013.1 hPa WNW 0.1 mph /  0.2 km/h 1.2 mph /  1.9 km/h 63 % 0.00 in /  0 mm
16:53 42.3 °F /  5.7 °C 31.4 °F /  -0.3 °C 29.92 in /  1013.1 hPa WNW 0.3 mph /  0.5 km/h 1.2 mph /  1.9 km/h 65 % 0.00 in /  0 mm
16:58 42.1 °F /  5.6 °C 31.2 °F /  -0.4 °C 29.93 in /  1013.4 hPa WNW 1.0 mph /  1.6 km/h 2.0 mph /  3.2 km/h 65 % 0.00 in /  0 mm
17:03 42.1 °F /  5.6 °C 32.3 °F /  0.2 °C 29.93 in /  1013.4 hPa Calm   1.2 mph /  1.9 km/h 68 % 0.00 in /  0 mm
17:08 42.0 °F /  5.6 °C 31.5 °F /  -0.3 °C 29.94 in /  1013.8 hPa WNW 0.4 mph /  0.6 km/h 2.3 mph /  3.7 km/h 66 % 0.00 in /  0 mm
17:13 41.8 °F /  5.4 °C 31.3 °F /  -0.4 °C 29.94 in /  1013.8 hPa Calm   1.0 mph /  1.6 km/h 66 % 0.00 in /  0 mm
17:18 41.7 °F /  5.4 °C 31.6 °F /  -0.2 °C 29.94 in /  1013.8 hPa WNW 1.0 mph /  1.6 km/h 2.0 mph /  3.2 km/h 67 % 0.00 in /  0 mm
17:23 41.6 °F /  5.3 °C 31.1 °F /  -0.5 °C 29.94 in /  1013.8 hPa WNW 1.0 mph /  1.6 km/h 3.0 mph /  4.8 km/h 66 % 0.00 in /  0 mm
17:28 41.5 °F /  5.3 °C 31.3 °F /  -0.4 °C 29.95 in /  1014.1 hPa Calm   2.0 mph /  3.2 km/h 67 % 0.00 in /  0 mm
17:33 41.4 °F /  5.2 °C 31.6 °F /  -0.2 °C 29.95 in /  1014.1 hPa WNW 1.0 mph /  1.6 km/h 3.0 mph /  4.8 km/h 68 % 0.00 in /  0 mm
17:38 41.3 °F /  5.2 °C 31.9 °F /  -0.1 °C 29.95 in /  1014.1 hPa Calm   2.0 mph /  3.2 km/h 69 % 0.00 in /  0 mm
17:43 41.1 °F /  5.1 °C 31.7 °F /  -0.2 °C 29.95 in /  1014.1 hPa WNW 0.1 mph /  0.2 km/h   69 % 0.00 in /  0 mm
17:48 41.0 °F /  5 °C 32.0 °F /  0 °C 29.95 in /  1014.1 hPa Calm     70 % 0.00 in /  0 mm
17:53 40.8 °F /  4.9 °C 31.8 °F /  -0.1 °C 29.95 in /  1014.1 hPa Calm   1.0 mph /  1.6 km/h 70 % 0.00 in /  0 mm
17:58 40.6 °F /  4.8 °C 31.9 °F /  -0.1 °C 29.95 in /  1014.1 hPa Calm   1.0 mph /  1.6 km/h 71 % 0.00 in /  0 mm
18:03 40.4 °F /  4.7 °C 32.1 °F /  0.1 °C 29.96 in /  1014.4 hPa Calm     72 % 0.00 in /  0 mm
18:09 40.1 °F /  4.5 °C 32.5 °F /  0.3 °C 29.96 in /  1014.4 hPa Calm     74 % 0.00 in /  0 mm
18:13 39.9 °F /  4.4 °C 32.6 °F /  0.3 °C 29.96 in /  1014.4 hPa NNW 1.4 mph /  2.3 km/h 2.3 mph /  3.7 km/h 75 % 0.00 in /  0 mm
18:19 39.7 °F /  4.3 °C 32.4 °F /  0.2 °C 29.96 in /  1014.4 hPa NNW 0.9 mph /  1.4 km/h 2.3 mph /  3.7 km/h 75 % 0.00 in /  0 mm
18:24 39.3 °F /  4.1 °C 32.0 °F /  0 °C 29.97 in /  1014.8 hPa NNW 0.3 mph /  0.5 km/h 2.3 mph /  3.7 km/h 75 % 0.00 in /  0 mm
18:29 39.1 °F /  3.9 °C 32.2 °F /  0.1 °C 29.97 in /  1014.8 hPa Calm     76 % 0.00 in /  0 mm
18:34 38.8 °F /  3.8 °C 32.2 °F /  0.1 °C 29.97 in /  1014.8 hPa NNW 1.2 mph /  1.9 km/h 2.3 mph /  3.7 km/h 77 % 0.00 in /  0 mm
18:39 38.6 °F /  3.7 °C 32.3 °F /  0.2 °C 29.97 in /  1014.8 hPa NNW 0.3 mph /  0.5 km/h 1.2 mph /  1.9 km/h 78 % 0.00 in /  0 mm
18:44 38.4 °F /  3.6 °C 32.5 °F /  0.3 °C 29.98 in /  1015.1 hPa NNW 1.2 mph /  1.9 km/h 2.3 mph /  3.7 km/h 79 % 0.00 in /  0 mm
18:49 38.2 °F /  3.4 °C 32.6 °F /  0.3 °C 29.98 in /  1015.1 hPa Calm     80 % 0.00 in /  0 mm
18:54 38.0 °F /  3.3 °C 32.7 °F /  0.4 °C 29.98 in /  1015.1 hPa NNW 0.6 mph /  1 km/h 1.2 mph /  1.9 km/h 81 % 0.00 in /  0 mm
18:59 37.9 °F /  3.3 °C 32.6 °F /  0.3 °C 29.99 in /  1015.5 hPa NNW 0.3 mph /  0.5 km/h 1.2 mph /  1.9 km/h 81 % 0.00 in /  0 mm
19:04 37.7 °F /  3.2 °C 32.7 °F /  0.4 °C 29.99 in /  1015.5 hPa NNW 0.1 mph /  0.2 km/h 1.2 mph /  1.9 km/h 82 % 0.00 in /  0 mm
19:09 37.5 °F /  3.1 °C 32.5 °F /  0.3 °C 29.99 in /  1015.5 hPa Calm   2.3 mph /  3.7 km/h 82 % 0.00 in /  0 mm
19:14 37.4 °F /  3 °C 32.7 °F /  0.4 °C 29.99 in /  1015.5 hPa Calm   2.3 mph /  3.7 km/h 83 % 0.00 in /  0 mm
19:19 37.3 °F /  2.9 °C 32.9 °F /  0.5 °C 29.99 in /  1015.5 hPa Calm     84 % 0.00 in /  0 mm
19:24 37.1 °F /  2.8 °C 32.7 °F /  0.4 °C 30.00 in /  1015.8 hPa Calm     84 % 0.00 in /  0 mm
19:29 37.1 °F /  2.8 °C 33.0 °F /  0.6 °C 30.00 in /  1015.8 hPa NNW 1.3 mph /  2.1 km/h 2.3 mph /  3.7 km/h 85 % 0.00 in /  0 mm
19:34 37.0 °F /  2.8 °C 33.2 °F /  0.7 °C 30.00 in /  1015.8 hPa North 1.1 mph /  1.8 km/h 2.3 mph /  3.7 km/h 86 % 0.00 in /  0 mm
19:39 36.9 °F /  2.7 °C 33.1 °F /  0.6 °C 30.01 in /  1016.1 hPa NNE 1.6 mph /  2.6 km/h 3.5 mph /  5.6 km/h 86 % 0.00 in /  0 mm
19:45 36.9 °F /  2.7 °C 33.4 °F /  0.8 °C 30.01 in /  1016.1 hPa NNE 0.5 mph /  0.8 km/h 2.3 mph /  3.7 km/h 87 % 0.00 in /  0 mm
19:50 36.8 °F /  2.7 °C 33.3 °F /  0.7 °C 30.01 in /  1016.1 hPa NNE 0.5 mph /  0.8 km/h 2.3 mph /  3.7 km/h 87 % 0.00 in /  0 mm
19:55 36.8 °F /  2.7 °C 33.3 °F /  0.7 °C 30.01 in /  1016.1 hPa Calm     87 % 0.00 in /  0 mm
20:00 36.7 °F /  2.6 °C 33.2 °F /  0.7 °C 30.02 in /  1016.5 hPa NNE 0.1 mph /  0.2 km/h 2.0 mph /  3.2 km/h 87 % 0.00 in /  0 mm
20:05 36.6 °F /  2.6 °C 32.8 °F /  0.4 °C 30.02 in /  1016.5 hPa Calm     86 % 0.00 in /  0 mm
20:10 36.5 °F /  2.5 °C 32.7 °F /  0.4 °C 30.02 in /  1016.5 hPa NNE 1.6 mph /  2.6 km/h 3.5 mph /  5.6 km/h 86 % 0.00 in /  0 mm
20:15 36.4 °F /  2.4 °C 32.3 °F /  0.2 °C 30.02 in /  1016.5 hPa East 2.9 mph /  4.7 km/h 4.6 mph /  7.4 km/h 85 % 0.00 in /  0 mm
20:20 36.3 °F /  2.4 °C 32.2 °F /  0.1 °C 30.02 in /  1016.5 hPa East 1.9 mph /  3.1 km/h 3.5 mph /  5.6 km/h 85 % 0.00 in /  0 mm
20:25 36.2 °F /  2.3 °C 32.4 °F /  0.2 °C 30.02 in /  1016.5 hPa East 4.0 mph /  6.4 km/h 5.8 mph /  9.3 km/h 86 % 0.00 in /  0 mm
20:30 36.2 °F /  2.3 °C 32.4 °F /  0.2 °C 30.02 in /  1016.5 hPa ENE 1.3 mph /  2.1 km/h 3.5 mph /  5.6 km/h 86 % 0.00 in /  0 mm
20:35 36.1 °F /  2.3 °C 32.6 °F /  0.3 °C 30.03 in /  1016.8 hPa ENE 2.4 mph /  3.9 km/h 3.5 mph /  5.6 km/h 87 % 0.00 in /  0 mm
20:40 36.0 °F /  2.2 °C 32.5 °F /  0.3 °C 30.03 in /  1016.8 hPa ENE 1.8 mph /  2.9 km/h 3.5 mph /  5.6 km/h 87 % 0.00 in /  0 mm
20:45 35.9 °F /  2.2 °C 32.4 °F /  0.2 °C 30.03 in /  1016.8 hPa ENE 3.1 mph /  5 km/h 3.5 mph /  5.6 km/h 87 % 0.00 in /  0 mm
20:50 35.8 °F /  2.1 °C 32.3 °F /  0.2 °C 30.03 in /  1016.8 hPa East 1.8 mph /  2.9 km/h 4.6 mph /  7.4 km/h 87 % 0.00 in /  0 mm
20:55 35.7 °F /  2.1 °C 32.2 °F /  0.1 °C 30.04 in /  1017.2 hPa East 1.6 mph /  2.6 km/h 2.3 mph /  3.7 km/h 87 % 0.00 in /  0 mm
21:00 35.6 °F /  2 °C 32.1 °F /  0.1 °C 30.04 in /  1017.2 hPa East 3.5 mph /  5.6 km/h 4.6 mph /  7.4 km/h 87 % 0.00 in /  0 mm
21:06 35.5 °F /  1.9 °C 32.3 °F /  0.2 °C 30.04 in /  1017.2 hPa East 2.0 mph /  3.2 km/h 3.5 mph /  5.6 km/h 88 % 0.00 in /  0 mm
21:11 35.4 °F /  1.9 °C 32.2 °F /  0.1 °C 30.04 in /  1017.2 hPa East 2.2 mph /  3.5 km/h 3.5 mph /  5.6 km/h 88 % 0.00 in /  0 mm
21:16 35.3 °F /  1.8 °C 32.1 °F /  0.1 °C 30.04 in /  1017.2 hPa East 1.1 mph /  1.8 km/h 2.3 mph /  3.7 km/h 88 % 0.00 in /  0 mm
21:21 35.3 °F /  1.8 °C 32.1 °F /  0.1 °C 30.05 in /  1017.5 hPa East 1.3 mph /  2.1 km/h 2.3 mph /  3.7 km/h 88 % 0.00 in /  0 mm
21:26 35.3 °F /  1.8 °C 32.1 °F /  0.1 °C 30.04 in /  1017.2 hPa East 1.4 mph /  2.3 km/h 2.3 mph /  3.7 km/h 88 % 0.00 in /  0 mm
21:31 35.2 °F /  1.8 °C 32.0 °F /  0 °C 30.03 in /  1016.8 hPa East 1.4 mph /  2.3 km/h 2.3 mph /  3.7 km/h 88 % 0.00 in /  0 mm
21:36 35.2 °F /  1.8 °C 32.3 °F /  0.2 °C 30.03 in /  1016.8 hPa East 1.0 mph /  1.6 km/h 2.3 mph /  3.7 km/h 89 % 0.00 in /  0 mm
21:41 35.2 °F /  1.8 °C 32.3 °F /  0.2 °C 30.03 in /  1016.8 hPa East 3.2 mph /  5.1 km/h 5.0 mph /  8 km/h 89 % 0.00 in /  0 mm
21:46 35.2 °F /  1.8 °C 32.3 °F /  0.2 °C 30.03 in /  1016.8 hPa ENE 2.8 mph /  4.5 km/h 4.0 mph /  6.4 km/h 89 % 0.00 in /  0 mm
21:51 35.2 °F /  1.8 °C 32.3 °F /  0.2 °C 30.04 in /  1017.2 hPa East 2.9 mph /  4.7 km/h 3.5 mph /  5.6 km/h 89 % 0.00 in /  0 mm
21:56 35.1 °F /  1.7 °C 32.2 °F /  0.1 °C 30.05 in /  1017.5 hPa East 3.0 mph /  4.8 km/h 5.8 mph /  9.3 km/h 89 % 0.00 in /  0 mm
22:01 35.1 °F /  1.7 °C 32.2 °F /  0.1 °C 30.04 in /  1017.2 hPa East 3.0 mph /  4.8 km/h 3.5 mph /  5.6 km/h 89 % 0.00 in /  0 mm
22:06 35.1 °F /  1.7 °C 32.2 °F /  0.1 °C 30.05 in /  1017.5 hPa ENE 3.0 mph /  4.8 km/h 4.6 mph /  7.4 km/h 89 % 0.00 in /  0 mm
22:11 35.0 °F /  1.7 °C 32.1 °F /  0.1 °C 30.05 in /  1017.5 hPa ENE 2.8 mph /  4.5 km/h 3.5 mph /  5.6 km/h 89 % 0.00 in /  0 mm
22:16 35.0 °F /  1.7 °C 32.1 °F /  0.1 °C 30.04 in /  1017.2 hPa East 4.3 mph /  6.9 km/h 5.8 mph /  9.3 km/h 89 % 0.00 in /  0 mm
22:21 34.8 °F /  1.6 °C 31.9 °F /  -0.1 °C 30.05 in /  1017.5 hPa East 4.1 mph /  6.6 km/h 5.0 mph /  8 km/h 89 % 0.00 in /  0 mm
22:26 34.8 °F /  1.6 °C 31.9 °F /  -0.1 °C 30.05 in /  1017.5 hPa East 3.2 mph /  5.1 km/h 4.6 mph /  7.4 km/h 89 % 0.00 in /  0 mm
22:31 34.7 °F /  1.5 °C 31.8 °F /  -0.1 °C 30.05 in /  1017.5 hPa East 4.2 mph /  6.8 km/h 5.8 mph /  9.3 km/h 89 % 0.00 in /  0 mm
22:36 34.7 °F /  1.5 °C 31.8 °F /  -0.1 °C 30.04 in /  1017.2 hPa East 4.5 mph /  7.2 km/h 5.8 mph /  9.3 km/h 89 % 0.00 in /  0 mm
22:41 34.6 °F /  1.4 °C 31.7 °F /  -0.2 °C 30.06 in /  1017.8 hPa East 3.5 mph /  5.6 km/h 5.0 mph /  8 km/h 89 % 0.00 in /  0 mm
22:47 34.6 °F /  1.4 °C 31.7 °F /  -0.2 °C 30.06 in /  1017.8 hPa East 3.6 mph /  5.8 km/h 5.0 mph /  8 km/h 89 % 0.00 in /  0 mm
22:52 34.5 °F /  1.4 °C 31.6 °F /  -0.2 °C 30.05 in /  1017.5 hPa East 2.9 mph /  4.7 km/h 5.0 mph /  8 km/h 89 % 0.00 in /  0 mm
22:57 34.4 °F /  1.3 °C 31.5 °F /  -0.3 °C 30.06 in /  1017.8 hPa East 4.9 mph /  7.9 km/h 5.8 mph /  9.3 km/h 89 % 0.00 in /  0 mm
23:02 34.4 °F /  1.3 °C 31.5 °F /  -0.3 °C 30.06 in /  1017.8 hPa East 4.2 mph /  6.8 km/h 5.8 mph /  9.3 km/h 89 % 0.00 in /  0 mm
23:07 34.3 °F /  1.3 °C 31.4 °F /  -0.3 °C 30.06 in /  1017.8 hPa East 4.3 mph /  6.9 km/h 4.6 mph /  7.4 km/h 89 % 0.00 in /  0 mm
23:12 34.3 °F /  1.3 °C 31.4 °F /  -0.3 °C 30.07 in /  1018.2 hPa East 4.2 mph /  6.8 km/h 5.8 mph /  9.3 km/h 89 % 0.00 in /  0 mm
23:17 34.3 °F /  1.3 °C 31.4 °F /  -0.3 °C 30.07 in /  1018.2 hPa East 3.8 mph /  6.1 km/h 5.0 mph /  8 km/h 89 % 0.00 in /  0 mm
23:22 34.3 °F /  1.3 °C 31.4 °F /  -0.3 °C 30.07 in /  1018.2 hPa ENE 3.1 mph /  5 km/h 5.8 mph /  9.3 km/h 89 % 0.00 in /  0 mm
23:27 34.4 °F /  1.3 °C 31.5 °F /  -0.3 °C 30.08 in /  1018.5 hPa ENE 3.2 mph /  5.1 km/h 3.5 mph /  5.6 km/h 89 % 0.00 in /  0 mm
23:32 34.4 °F /  1.3 °C 31.5 °F /  -0.3 °C 30.07 in /  1018.2 hPa ENE 4.2 mph /  6.8 km/h 4.6 mph /  7.4 km/h 89 % 0.00 in /  0 mm
23:37 34.4 °F /  1.3 °C 31.5 °F /  -0.3 °C 30.08 in /  1018.5 hPa East 2.7 mph /  4.3 km/h 3.5 mph /  5.6 km/h 89 % 0.00 in /  0 mm
23:42 34.4 °F /  1.3 °C 31.5 °F /  -0.3 °C 30.08 in /  1018.5 hPa East 4.1 mph /  6.6 km/h 5.0 mph /  8 km/h 89 % 0.00 in /  0 mm
23:47 34.5 °F /  1.4 °C 31.6 °F /  -0.2 °C 30.07 in /  1018.2 hPa East 3.0 mph /  4.8 km/h 5.0 mph /  8 km/h 89 % 0.00 in /  0 mm
23:52 34.5 °F /  1.4 °C 31.6 °F /  -0.2 °C 30.07 in /  1018.2 hPa ENE 3.0 mph /  4.8 km/h 4.6 mph /  7.4 km/h 89 % 0.00 in /  0 mm
23:57 34.5 °F /  1.4 °C 31.6 °F /  -0.2 °C 30.08 in /  1018.5 hPa ENE 4.1 mph /  6.6 km/h 4.6 mph /  7.4 km/h 89 % 0.00 in /  0 mm
Crab Meadow Weather
Compliments of Weather Underground - 3 mb

Script developed by  Jim McMurry - jmcmurry@mwt.net Adapted for the template by  Wim van der Kuil - Leuven-Template.eu

Weather Terms: Wind Chill - An apparent temperature that describes the combined effect of wind and low temperature on exposed skin.